Latest Weather Observations for Mount Crawford

IDS60801

Issued at 11:35 am CST Thursday 2 October 2014 (issued every 30 minutes, with the page automatically refreshed every 10 minutes)

About weather observations | Map of weather stations | Latest weather observations for SA | Other Formats
Station Details ID: 023878 Name: MT CRAWFORD AWS Lat: -34.73 Lon: 138.93 Height: 525.0 m
Data from the previous 72 hours. | See also: Recent months at Mount Crawford
Date/Time
CST
Temp
°C
App
Temp
°C
Dew
Point
Rel
Hum
%
Delta-T
°C
Wind Press
QNH
hPa
Press
MSL
hPa
Rain
since 9 am
mm
Dir
 
Spd
km/h
Gust
km/h
Spd
kts
Gust
kts
02/11:30am 13.3 11.1 6.2 62 3.5 SE 7 19 4 10 1026.7 1026.3 0.0
02/11:00am 13.3 11.0 7.5 68 2.9 E 9 19 5 10 1026.8 1026.4 0.0
02/10:30am 11.9 9.0 6.6 70 2.6 SSE 11 19 6 10 1027.3 1026.8 0.0
02/10:00am 11.7 9.1 6.0 68 2.7 ESE 9 15 5 8 1027.5 1027.0 0.0
02/09:30am 12.2 9.4 7.1 71 2.5 ENE 11 17 6 9 1027.5 1027.0 0.0
02/09:00am 11.2 8.3 6.5 73 2.3 ENE 11 19 6 10 1027.7 1027.2 0.0
02/08:30am 9.8 6.4 6.0 77 1.8 ESE 13 17 7 9 1027.7 1027.2 0.0
02/08:00am 8.8 5.1 6.1 83 1.3 ESE 15 19 8 10 1027.4 1026.9 0.0
02/07:30am 8.3 4.6 6.3 87 0.9 ESE 15 19 8 10 1027.3 1026.8 0.0
02/07:00am 7.3 3.9 5.9 91 0.7 SE 13 17 7 9 1027.3 1026.8 0.0
02/06:30am 5.9 2.8 5.5 97 0.2 ESE 11 13 6 7 1026.7 1026.3 0.0
02/06:00am 5.5 1.2 5.1 97 0.2 SE 17 20 9 11 1026.3 1025.8 0.0
02/05:30am 5.6 0.9 5.0 96 0.3 SE 19 22 10 12 1026.1 1025.6 0.0
02/05:00am 5.5 1.1 4.9 96 0.3 SE 17 22 9 12 1025.9 1025.4 0.0
02/04:30am 5.6 0.9 5.0 96 0.3 SE 19 24 10 13 1025.7 1025.2 0.0
02/04:00am 5.8 1.1 5.2 96 0.3 SE 19 24 10 13 1025.5 1025.0 0.0
02/03:30am 5.9 0.3 5.2 95 0.3 SE 24 30 13 16 1025.4 1024.9 0.0
02/03:00am 6.2 1.0 5.3 94 0.4 SE 22 30 12 16 1025.6 1025.1 0.0
02/02:30am 6.2 0.9 5.2 93 0.5 SSE 22 28 12 15 1025.7 1025.2 0.0
02/02:00am 6.6 1.0 5.4 92 0.5 SSE 24 30 13 16 1026.0 1025.5 0.0
02/01:30am 6.6 1.4 5.4 92 0.5 SSE 22 28 12 15 1026.4 1025.9 0.0
02/01:00am 6.5 1.6 5.0 90 0.7 SE 20 28 11 15 1026.6 1026.2 0.0
02/12:30am 6.4 1.1 5.0 91 0.6 SE 22 28 12 15 1026.8 1026.4 0.0
02/12:00am 6.6 1.3 5.1 90 0.7 SSE 22 30 12 16 1026.8 1026.4 0.0
 
Date/Time
CST
Temp
°C
App
Temp
°C
Dew
Point
Rel
Hum
%
Delta-T
°C
Wind Press
QNH
hPa
Press
MSL
hPa
Rain
since 9 am
mm
Dir
 
Spd
km/h
Gust
km/h
Spd
kts
Gust
kts
01/11:30pm 6.7 1.4 4.9 88 0.8 SSE 22 30 12 16 1026.9 1026.5 0.0
01/11:00pm 7.0 1.3 5.0 87 0.9 SSE 24 30 13 16 1027.1 1026.7 0.0
01/10:30pm 6.8 2.0 4.8 87 0.9 SSE 19 24 10 13 1027.3 1026.8 0.0
01/10:00pm 6.7 2.2 4.4 85 1.0 SE 17 22 9 12 1027.5 1027.0 0.0
01/09:30pm 6.9 1.8 4.2 83 1.2 SSE 20 24 11 13 1027.6 1027.1 0.0
01/09:00pm 7.1 2.0 4.2 82 1.3 SSE 20 26 11 14 1027.5 1027.0 0.0
01/08:30pm 7.3 1.9 4.3 81 1.3 SSE 22 28 12 15 1027.4 1026.9 0.0
01/08:00pm 7.8 2.8 4.4 79 1.5 SSE 20 30 11 16 1027.1 1026.7 0.0
01/07:30pm 8.2 3.2 4.6 78 1.6 SSE 20 28 11 15 1027.0 1026.6 0.0
01/07:00pm 8.8 4.0 4.6 75 1.9 SSE 19 26 10 14 1026.6 1026.2 0.0
01/06:30pm 9.5 4.1 4.7 72 2.2 SSE 22 30 12 16 1026.3 1025.8 0.0
01/06:00pm 10.3 5.9 4.5 67 2.7 SE 17 22 9 12 1026.1 1025.6 0.0
01/05:30pm 11.6 6.7 4.3 61 3.4 SE 19 28 10 15 1026.1 1025.6 0.0
01/05:00pm 12.9 8.6 5.1 59 3.7 SE 17 24 9 13 1025.9 1025.4 0.0
01/04:30pm 14.0 10.1 5.4 56 4.1 SSE 15 20 8 11 1025.8 1025.3 0.0
01/04:00pm 14.4 11.6 5.2 54 4.5 SE 9 19 5 10 1025.7 1025.2 0.0
01/03:30pm 14.6 11.7 4.6 51 4.8 ESE 9 17 5 9 1025.7 1025.2 0.0
01/03:00pm 13.7 9.9 4.0 52 4.5 SSW 13 20 7 11 1025.8 1025.3 0.0
01/02:30pm 14.0 11.0 4.0 51 4.7 S 9 15 5 8 1026.1 1025.6 0.0
01/02:00pm 13.9 10.3 5.0 55 4.3 S 13 20 7 11 1026.2 1025.7 0.0
01/01:30pm 12.7 9.0 4.2 56 3.9 SSE 13 19 7 10 1026.5 1026.1 0.0
01/01:00pm 12.8 9.6 5.0 59 3.7 SSW 11 20 6 11 1026.9 1026.5 0.0
01/12:30pm 12.6 9.1 5.3 61 3.5 S 13 20 7 11 1027.1 1026.7 0.0
01/12:00pm 11.6 7.0 3.9 59 3.5 S 17 22 9 12 1027.4 1026.9 0.0
01/11:30am 11.3 7.6 4.5 63 3.1 SSW 13 20 7 11 1027.4 1026.9 0.0
01/11:00am 10.9 7.7 5.0 67 2.8 SW 11 20 6 11 1027.5 1027.0 0.0
01/10:30am 11.3 6.9 4.7 64 3.1 SSE 17 24 9 13 1027.4 1026.9 0.0
01/10:00am 10.0 5.8 4.0 66 2.7 SSW 15 24 8 13 1027.3 1026.8 0.0
01/09:30am 10.4 6.8 4.8 68 2.6 SSE 13 17 7 9 1027.1 1026.7 0.0
01/09:00am 9.5 5.1 4.5 71 2.3 S 17 24 9 13 1027.0 1027.0 0.0
01/08:30am 9.1 5.2 5.5 78 1.7 S 15 20 8 11 1026.8 1026.8 0.0
01/08:00am 9.0 5.2 5.9 81 1.5 S 15 20 8 11 1026.4 1026.3 0.0
01/07:30am 8.2 4.3 5.3 82 1.3 S 15 24 8 13 1026.0 1025.9 0.0
01/07:00am 7.0 3.0 5.0 87 0.9 SSW 15 22 8 12 1025.7 1025.6 0.0
01/06:30am 6.4 2.3 4.6 88 0.8 SSW 15 22 8 12 1025.3 1025.2 0.0
01/06:00am 5.9 2.2 4.5 91 0.6 SW 13 17 7 9 1024.6 1024.5 0.0
01/05:30am 6.1 2.4 4.4 89 0.8 SW 13 19 7 10 1024.1 1024.0 0.0
01/05:00am 6.7 2.7 4.7 87 0.9 SSW 15 20 8 11 1023.7 1023.6 0.0
01/04:30am 6.6 2.1 4.3 85 1.0 SSW 17 24 9 13 1023.3 1023.1 0.0
01/04:00am 6.3 2.6 4.6 89 0.8 SW 13 20 7 11 1022.9 1022.8 0.0
01/03:30am 6.6 3.4 4.9 89 0.8 SW 11 17 6 9 1022.7 1022.6 0.0
01/03:00am 7.0 3.4 4.8 86 1.0 SW 13 19 7 10 1022.5 1022.4 0.0
01/02:30am 7.0 3.0 5.0 87 0.9 SW 15 20 8 11 1022.3 1022.2 0.0
01/02:00am 6.4 2.8 5.0 91 0.6 SW 13 20 7 11 1022.3 1022.2 0.0
01/01:30am 7.0 3.1 5.2 88 0.8 SW 15 20 8 11 1022.3 1022.2 0.0
01/01:00am 7.4 3.5 5.4 87 0.9 SW 15 20 8 11 1022.2 1022.1 0.0
01/12:30am 7.0 3.5 5.5 90 0.7 SW 13 20 7 11 1022.2 1022.1 0.0
01/12:00am 7.6 4.2 5.7 88 0.9 SW 13 22 7 12 1022.0 1021.9 0.0
 
Date/Time
CST
Temp
°C
App
Temp
°C
Dew
Point
Rel
Hum
%
Delta-T
°C
Wind Press
QNH
hPa
Press
MSL
hPa
Rain
since 9 am
mm
Dir
 
Spd
km/h
Gust
km/h
Spd
kts
Gust
kts
30/11:30pm 7.7 3.8 5.5 86 1.0 WSW 15 22 8 12 1021.7 1021.5 0.0
30/11:00pm 7.6 2.9 5.2 85 1.1 WSW 19 30 10 16 1021.4 1021.2 0.0
30/10:30pm 7.8 2.5 4.9 82 1.3 WSW 22 33 12 18 1021.0 1020.9 0.0
30/10:00pm 8.4 2.9 4.0 74 2.0 WSW 22 33 12 18 1020.8 1020.7 0.0
30/09:30pm 8.9 4.1 7.2 89 0.8 WSW 22 35 12 19 1020.6 1020.5 0.0
30/09:00pm 9.6 4.3 6.9 83 1.3 WSW 24 37 13 20 1020.3 1020.2 0.0
30/08:30pm 9.7 3.7 7.0 83 1.3 WSW 28 41 15 22 1020.0 1019.8 0.0
30/08:00pm 9.5 4.5 6.6 82 1.4 WSW 22 33 12 18 1019.6 1019.4 0.0
30/07:44pm 9.5 3.3 6.2 80 1.6 WSW 28 48 15 26 1019.2 1019.0 0.0
30/07:30pm 9.6 4.5 6.0 78 1.7 WSW 22 35 12 19 1019.0 1018.9 0.0
30/07:13pm 10.2 4.1 6.4 77 1.8 WSW 28 48 15 26 1018.6 1018.4 0.0
30/07:00pm 10.3 4.6 6.6 78 1.8 WSW 26 44 14 24 1018.4 1018.2 0.0
30/06:30pm 10.2 2.4 4.8 69 2.5 WSW 35 63 19 34 1017.7 1017.5 0.0
30/06:00pm 10.9 2.4 3.0 58 3.5 WSW 37 56 20 30 1016.9 1016.7 0.0
30/05:30pm 11.8 4.3 3.3 56 3.9 WSW 32 57 17 31 1016.6 1016.4 0.0
30/05:00pm 12.7 4.9 2.6 50 4.6 WSW 33 59 18 32 1016.2 1016.0 0.0
30/04:30pm 13.3 4.9 3.9 53 4.4 W 37 59 20 32 1015.9 1015.7 0.0
30/04:00pm 12.5 4.3 6.5 67 2.9 WSW 39 61 21 33 1015.2 1014.9 0.0
30/03:30pm 12.9 5.0 9.2 78 1.9 W 41 61 22 33 1014.7 1014.5 0.0
30/03:00pm 11.5 5.1 10.6 94 0.5 W 35 56 19 30 1014.6 1014.4 0.0
30/02:30pm 12.4 3.3 10.0 85 1.3 W 48 72 26 39 1014.0 1013.8 0.0
30/02:00pm 14.9 4.4 8.8 67 3.2 W 54 76 29 41 1013.1 1012.8 0.0
30/01:55pm 15.0 5.2 8.7 66 3.3 W 50 69 27 37 1013.3 1013.0 0.0
30/01:50pm 14.4 -0.1 8.1 66 3.2 W 74 95 40 51 1012.4 1012.2 0.0
30/01:34pm 14.7 4.2 8.9 68 3.0 W 54 93 29 50 1012.6 1012.4 0.0
30/01:30pm 14.6 5.6 9.0 69 2.9 W 46 67 25 36 1013.3 1013.0 0.0
30/01:28pm 14.7 6.4 9.3 70 2.8 W 43 65 23 35 1013.5 1013.2 0.0
30/01:00pm 15.2 2.7 9.3 68 3.1 W 65 89 35 48 1012.6 1012.4 0.0
30/12:30pm 15.0 2.5 9.1 68 3.1 W 65 89 35 48 1012.5 1012.3 0.0
30/12:00pm 14.8 3.7 8.7 67 3.2 W 57 85 31 46 1012.6 1012.4 0.0
30/11:36am 15.0 1.1 8.9 67 3.2 W 72 91 39 49 1011.9 1011.6 0.0
30/11:32am 15.0 4.5 8.7 66 3.3 W 54 85 29 46 1012.1 1011.8 0.0
30/11:30am 15.3 6.4 9.2 67 3.2 W 46 67 25 36 1012.7 1012.5 0.0
30/11:00am 14.3 0.1 7.8 65 3.3 W 72 96 39 52 1011.6 1011.3 0.0
30/10:30am 14.8 3.7 8.7 67 3.2 W 57 83 31 45 1012.2 1012.0 0.0
30/10:00am 14.4 2.5 8.8 69 2.9 W 61 87 33 47 1012.1 1011.8 0.0
30/09:30am 14.7 3.5 8.4 66 3.3 W 57 89 31 48 1012.1 1011.8 0.0
30/09:00am 14.4 3.6 7.7 64 3.4 W 54 80 29 43 1012.2 1012.0 0.0
30/08:30am 14.1 4.2 6.7 61 3.7 WNW 48 72 26 39 1012.0 1011.7 0.0
30/08:00am 13.3 4.2 6.9 65 3.2 WNW 44 65 24 35 1011.9 1011.6 0.0
30/07:30am 12.8 2.8 6.2 64 3.2 WNW 48 67 26 36 1011.4 1011.1 0.0
30/07:04am 11.5 2.8 6.2 70 2.6 WNW 41 61 22 33 1011.7 1011.4 0.0
30/07:00am 11.2 2.9 6.3 72 2.4 WNW 39 56 21 30 1011.8 1011.5 0.0
30/06:50am 10.6 3.5 6.4 75 2.0 WNW 33 54 18 29 1011.8 1011.5 0.0
30/06:30am 9.9 2.8 6.2 78 1.8 NW 33 46 18 25 1011.6 1011.3 0.0
30/06:00am 9.9 3.7 6.2 78 1.8 NW 28 43 15 23 1011.5 1011.2 0.0
30/05:30am 9.9 3.4 6.4 79 1.7 NW 30 39 16 21 1011.4 1011.1 0.0
30/05:00am 10.1 4.8 6.8 80 1.6 NW 24 33 13 18 1011.3 1011.0 0.0
30/04:30am 10.4 4.8 7.1 80 1.6 NW 26 35 14 19 1011.3 1011.0 0.0
30/04:00am 10.4 5.7 9.2 92 0.6 NW 24 33 13 18 1011.2 1010.9 0.0
30/03:30am 10.0 5.8 9.9 99 0.1 NNW 22 28 12 15 1011.3 1011.0 0.0
30/03:00am 10.2 6.1 10.0 99 0.1 NNW 22 30 12 16 1011.7 1011.4 0.0
30/02:30am 10.3 6.6 10.0 98 0.2 NNW 20 26 11 14 1011.9 1011.6 0.0
30/02:00am 10.7 7.5 10.1 96 0.3 NW 17 22 9 12 1012.4 1012.2 0.0
30/01:30am 10.2 7.4 10.0 99 0.1 NW 15 19 8 10 1012.7 1012.5 0.0
30/01:00am 10.2 7.4 10.0 99 0.1 WNW 15 19 8 10 1013.3 1013.0 0.0
30/12:30am 9.9 7.4 9.8 99 0.1 W 13 17 7 9 1013.7 1013.4 0.0
30/12:00am 10.1 7.2 9.6 97 0.3 W 15 20 8 11 1013.9 1013.7 0.0
 
Date/Time
CST
Temp
°C
App
Temp
°C
Dew
Point
Rel
Hum
%
Delta-T
°C
Wind Press
QNH
hPa
Press
MSL
hPa
Rain
since 9 am
mm
Dir
 
Spd
km/h
Gust
km/h
Spd
kts
Gust
kts
29/11:30pm 10.1 7.3 9.9 99 0.1 W 15 19 8 10 1014.2 1014.0 0.0
29/11:00pm 10.2 7.4 9.9 98 0.2 W 15 22 8 12 1014.5 1014.3 0.0
29/10:30pm 10.5 7.3 9.9 96 0.3 W 17 22 9 12 1014.6 1014.4 0.0
29/10:00pm 10.8 7.1 9.6 92 0.6 W 19 28 10 15 1014.8 1014.6 0.0
29/09:30pm 11.3 7.5 9.0 86 1.2 W 19 26 10 14 1014.6 1014.4 0.0
29/09:00pm 11.8 7.7 8.8 82 1.5 W 20 30 11 16 1014.4 1014.2 0.0
29/08:30pm 12.2 7.6 8.3 77 2.0 W 22 32 12 17 1014.4 1014.2 0.0
29/08:00pm 12.4 7.7 7.9 74 2.3 W 22 32 12 17 1014.2 1014.0 0.0
29/07:30pm 12.7 8.1 8.0 73 2.4 W 22 30 12 16 1013.8 1013.6 0.0
29/07:00pm 12.9 8.6 8.0 72 2.5 W 20 24 11 13 1013.6 1013.3 0.0
29/06:30pm 13.2 9.0 7.6 69 2.8 W 19 22 10 12 1013.4 1013.1 0.0
29/06:00pm 14.4 10.0 7.2 62 3.6 W 20 26 11 14 1013.4 1013.1 0.0
29/05:30pm 15.4 11.1 7.7 60 3.9 W 20 30 11 16 1013.5 1013.2 0.0
29/05:00pm 15.9 10.6 8.4 61 3.9 W 26 35 14 19 1013.3 1013.0 0.0
29/04:30pm 15.9 10.3 8.6 62 3.8 W 28 39 15 21 1012.8 1012.6 0.0
29/04:05pm 16.8 11.1 8.5 58 4.4 W 28 46 15 25 1012.6 1012.4 0.0
29/04:00pm 17.2 12.4 8.9 58 4.4 W 24 35 13 19 1012.7 1012.5 0.0
29/03:30pm 17.9 12.7 8.7 55 4.9 W 26 39 14 21 1012.7 1012.5 0.0
29/03:10pm 17.7 11.8 7.4 51 5.3 W 28 48 15 26 1012.6 1012.4 0.0
29/03:00pm 17.5 11.6 7.3 51 5.3 WNW 28 44 15 24 1012.9 1012.7 0.0
29/02:30pm 17.4 11.0 6.9 50 5.4 WNW 30 41 16 22 1013.1 1012.8 0.0
29/02:00pm 17.2 11.8 8.1 55 4.8 WNW 26 35 14 19 1013.5 1013.2 0.0
29/01:30pm 17.3 12.3 8.2 55 4.8 WNW 24 44 13 24 1013.7 1013.4 0.0
29/01:00pm 16.1 10.7 8.1 59 4.2 W 26 39 14 21 1013.9 1013.7 0.0
29/12:30pm 16.2 10.8 9.6 65 3.5 W 28 41 15 22 1014.4 1014.2 0.0
29/12:00pm 14.6 8.9 8.5 67 3.2 W 28 43 15 23 1014.6 1014.4 0.0

Other Formats:

Comma delimited format used in spreadsheet applications
http://www.bom.gov.au/fwo/IDS60801/IDS60801.94678.axf

JavaScript Object Notation format (JSON) in row-major order
http://www.bom.gov.au/fwo/IDS60801/IDS60801.94678.json